Time;durP1;ratioP1;P1;durP2;ratioP2;P2;SDS_P1;SDS_P2;PMS_P1;PMS_P2;Temp;Humidity;BMP_temperature;BMP_pressure;BME280_temperature;BME280_humidity;BME280_pressure;Samples;Min_cycle;Max_cycle;Signal;HPM_P1;HPM_P2
2023/08/13 00:00:51;;;;;;;3.50;2.67;;;;;;;;;;5074200;28;20222;-73
2023/08/13 00:03:56;;;;;;;5.00;2.80;;;;;;;;;;5074296;28;20552;-73
2023/08/13 00:07:00;;;;;;;3.47;2.63;;;;;;;;;;5074394;28;20199;-74
2023/08/13 00:10:04;;;;;;;5.03;2.87;;;;;;;;;;5050724;28;20172;-74
2023/08/13 00:13:10;;;;;;;4.93;2.80;;;;;;;;;;5074151;28;20184;-73
2023/08/13 00:16:14;;;;;;;3.80;2.70;;;;;;;;;;5062435;28;20179;-73
2023/08/13 00:19:18;;;;;;;5.27;2.83;;;;;;;;;;5074002;28;20188;-74
2023/08/13 00:22:22;;;;;;;7.63;3.07;;;;;;;;;;5061627;28;20211;-74
2023/08/13 00:25:26;;;;;;;7.20;3.00;;;;;;;;;;5074455;28;20183;-73
2023/08/13 00:28:30;;;;;;;4.13;2.93;;;;;;;;;;5073852;28;20515;-73
2023/08/13 00:31:35;;;;;;;4.60;3.10;;;;;;;;;;5050286;28;20211;-73
2023/08/13 00:34:39;;;;;;;4.20;2.97;;;;;;;;;;5061641;28;20634;-74
2023/08/13 00:37:42;;;;;;;3.43;2.80;;;;;;;;;;5073963;28;20626;-74
2023/08/13 00:40:47;;;;;;;5.80;3.17;;;;;;;;;;5061200;28;20223;-73
2023/08/13 00:43:51;;;;;;;5.17;3.37;;;;;;;;;;5073775;28;20543;-74
2023/08/13 00:46:56;;;;;;;5.60;2.90;;;;;;;;;;5073222;28;20203;-73
2023/08/13 00:50:00;;;;;;;4.37;3.17;;;;;;;;;;5061371;28;20179;-73
2023/08/13 00:53:05;;;;;;;6.27;3.30;;;;;;;;;;5073473;28;20184;-73
2023/08/13 00:56:10;;;;;;;5.47;3.10;;;;;;;;;;5061299;28;20650;-74
2023/08/13 00:59:14;;;;;;;4.53;3.00;;;;;;;;;;5061134;28;20179;-74
2023/08/13 01:02:19;;;;;;;4.83;3.10;;;;;;;;;;5061030;28;20211;-74
2023/08/13 01:05:36;;;;;;;3.33;3.03;;;;;;;;;;5061073;28;20172;-73
2023/08/13 01:08:57;;;;;;;6.47;2.93;;;;;;;;;;5072671;28;20183;-73
2023/08/13 01:12:25;;;;;;;8.23;3.10;;;;;;;;;;5073381;28;20670;-73
2023/08/13 01:15:35;;;;;;;3.27;2.80;;;;;;;;;;5073198;28;20179;-73
2023/08/13 01:18:40;;;;;;;3.70;2.97;;;;;;;;;;5061097;28;20180;-73
2023/08/13 01:21:44;;;;;;;5.20;3.67;;;;;;;;;;5060666;28;20219;-73
2023/08/13 01:24:48;;;;;;;3.50;3.20;;;;;;;;;;5072538;28;20523;-74
2023/08/13 01:27:56;;;;;;;4.90;3.10;;;;;;;;;;5072915;28;20215;-74
2023/08/13 01:31:12;;;;;;;6.70;3.20;;;;;;;;;;5060601;28;20674;-73
2023/08/13 01:34:17;;;;;;;3.20;2.90;;;;;;;;;;5072955;28;20187;-73
2023/08/13 01:37:21;;;;;;;4.17;2.80;;;;;;;;;;5073477;28;20180;-72
2023/08/13 01:40:26;;;;;;;5.10;3.67;;;;;;;;;;5049204;28;20199;-73
2023/08/13 01:43:30;;;;;;;3.73;3.37;;;;;;;;;;5060745;28;20176;-73
2023/08/13 01:46:35;;;;;;;6.40;3.00;;;;;;;;;;5073142;28;20179;-73
2023/08/13 01:49:40;;;;;;;3.80;2.93;;;;;;;;;;5073064;28;20599;-72
2023/08/13 01:52:44;;;;;;;3.37;3.00;;;;;;;;;;5072199;28;20207;-73
2023/08/13 01:55:47;;;;;;;3.83;3.10;;;;;;;;;;5060775;28;20626;-73
2023/08/13 01:58:52;;;;;;;4.03;3.40;;;;;;;;;;5060516;28;20179;-73
2023/08/13 02:01:55;;;;;;;4.80;3.33;;;;;;;;;;5060416;28;20231;-73
2023/08/13 02:05:00;;;;;;;4.77;3.27;;;;;;;;;;5060491;28;20188;-73
2023/08/13 02:08:04;;;;;;;4.10;3.07;;;;;;;;;;5048887;28;20175;-73
2023/08/13 02:11:09;;;;;;;5.13;3.30;;;;;;;;;;5060455;28;20555;-73
2023/08/13 02:14:13;;;;;;;5.50;3.10;;;;;;;;;;5064336;28;20175;-73
2023/08/13 02:17:17;;;;;;;9.47;3.20;;;;;;;;;;5052676;28;20176;-73
2023/08/13 02:20:21;;;;;;;7.00;3.70;;;;;;;;;;5076308;28;20179;-73
2023/08/13 02:23:25;;;;;;;6.53;3.73;;;;;;;;;;5064258;28;20179;-73
2023/08/13 02:26:29;;;;;;;4.17;3.20;;;;;;;;;;5064080;28;20202;-73
2023/08/13 02:29:34;;;;;;;4.50;3.10;;;;;;;;;;5076214;28;20195;-73
2023/08/13 02:32:38;;;;;;;4.23;3.50;;;;;;;;;;5075161;28;20211;-73
2023/08/13 02:35:42;;;;;;;3.60;3.30;;;;;;;;;;5076077;28;20519;-73
2023/08/13 02:38:46;;;;;;;4.87;3.60;;;;;;;;;;5076313;28;20519;-73
2023/08/13 02:41:51;;;;;;;4.90;3.50;;;;;;;;;;5063739;28;20227;-73
2023/08/13 02:44:55;;;;;;;4.20;3.80;;;;;;;;;;5063609;28;20175;-73
2023/08/13 02:47:59;;;;;;;4.83;3.50;;;;;;;;;;5063850;28;20183;-73
2023/08/13 02:51:03;;;;;;;7.23;3.87;;;;;;;;;;5075660;28;20215;-73
2023/08/13 02:54:08;;;;;;;5.87;3.30;;;;;;;;;;5075969;28;20187;-73
2023/08/13 02:57:12;;;;;;;7.27;3.53;;;;;;;;;;5063646;28;20184;-74
2023/08/13 03:00:16;;;;;;;5.13;3.07;;;;;;;;;;5063598;28;20626;-73
2023/08/13 03:03:21;;;;;;;5.57;3.70;;;;;;;;;;5040746;28;20180;-73
2023/08/13 03:06:25;;;;;;;5.63;3.83;;;;;;;;;;5063498;28;20179;-73
2023/08/13 03:09:29;;;;;;;4.20;3.57;;;;;;;;;;5063394;28;20171;-73
2023/08/13 03:12:33;;;;;;;6.73;3.17;;;;;;;;;;5075240;28;20207;-73
2023/08/13 03:15:38;;;;;;;6.07;3.63;;;;;;;;;;5063386;28;20184;-73
2023/08/13 03:18:42;;;;;;;5.33;4.37;;;;;;;;;;5063164;28;20512;-74
2023/08/13 03:21:50;;;;;;;4.87;4.13;;;;;;;;;;5063197;28;20219;-73
2023/08/13 03:24:54;;;;;;;5.33;4.27;;;;;;;;;;5074692;28;20180;-73
2023/08/13 03:27:58;;;;;;;5.00;3.90;;;;;;;;;;5074182;28;20547;-73
2023/08/13 03:31:05;;;;;;;5.57;4.10;;;;;;;;;;5074679;28;20207;-73
2023/08/13 03:34:26;;;;;;;5.77;4.07;;;;;;;;;;5062752;28;20176;-73
2023/08/13 03:37:30;;;;;;;5.17;3.47;;;;;;;;;;5062594;28;20176;-73
2023/08/13 03:40:37;;;;;;;6.07;3.83;;;;;;;;;;5062518;28;20179;-73
2023/08/13 03:43:41;;;;;;;6.43;4.63;;;;;;;;;;5074907;28;20187;-73
2023/08/13 03:46:45;;;;;;;4.77;3.83;;;;;;;;;;5074997;28;20519;-73
2023/08/13 03:49:50;;;;;;;4.77;4.03;;;;;;;;;;5062342;28;20176;-73
2023/08/13 03:52:54;;;;;;;4.63;3.77;;;;;;;;;;5062381;28;20179;-73
2023/08/13 03:55:58;;;;;;;4.70;4.17;;;;;;;;;;5062533;28;20179;-73
2023/08/13 03:59:02;;;;;;;4.93;4.00;;;;;;;;;;5050695;28;20180;-73
2023/08/13 04:02:07;;;;;;;4.87;4.37;;;;;;;;;;5062067;28;20219;-73
2023/08/13 04:05:11;;;;;;;4.37;3.70;;;;;;;;;;5062086;28;20183;-73
2023/08/13 04:08:15;;;;;;;6.77;4.30;;;;;;;;;;5062416;28;20184;-73
2023/08/13 04:11:19;;;;;;;5.93;4.27;;;;;;;;;;5061858;28;20207;-73
2023/08/13 04:14:24;;;;;;;4.47;3.90;;;;;;;;;;5073545;28;20171;-73
2023/08/13 04:17:28;;;;;;;6.37;4.13;;;;;;;;;;5061883;28;20184;-74
2023/08/13 04:20:35;;;;;;;5.57;4.50;;;;;;;;;;5061844;28;20175;-73
2023/08/13 04:23:39;;;;;;;5.80;3.97;;;;;;;;;;5074250;28;20532;-73
2023/08/13 04:26:43;;;;;;;6.67;3.87;;;;;;;;;;5073961;28;20206;-73
2023/08/13 04:29:48;;;;;;;4.37;3.47;;;;;;;;;;5050143;28;20199;-73
2023/08/13 04:32:56;;;;;;;6.33;4.70;;;;;;;;;;5072955;28;20217;-74
2023/08/13 04:36:03;;;;;;;7.23;4.30;;;;;;;;;;5061430;28;20180;-73
2023/08/13 04:39:07;;;;;;;7.53;4.53;;;;;;;;;;5073677;28;20183;-73
2023/08/13 04:42:11;;;;;;;5.70;4.43;;;;;;;;;;5061163;28;20231;-72
2023/08/13 04:45:15;;;;;;;4.20;3.50;;;;;;;;;;5061898;28;20508;-72
2023/08/13 04:48:40;;;;;;;6.13;3.83;;;;;;;;;;5050028;28;20191;-72
2023/08/13 04:51:45;;;;;;;4.90;4.37;;;;;;;;;;5061399;28;20674;-73
2023/08/13 04:54:49;;;;;;;6.13;3.50;;;;;;;;;;5061096;28;20183;-72
2023/08/13 04:57:53;;;;;;;13.43;4.37;;;;;;;;;;5049744;28;20184;-73
2023/08/13 05:00:57;;;;;;;3.80;3.30;;;;;;;;;;5061168;28;20223;-73
2023/08/13 05:04:03;;;;;;;5.13;3.63;;;;;;;;;;5061131;28;20198;-74
2023/08/13 05:07:12;;;;;;;7.83;3.87;;;;;;;;;;5072734;28;20265;-73
2023/08/13 05:10:16;;;;;;;4.23;3.83;;;;;;;;;;5060925;28;20179;-73
2023/08/13 05:13:21;;;;;;;4.63;3.90;;;;;;;;;;5060863;28;20183;-73
2023/08/13 05:16:25;;;;;;;10.20;4.03;;;;;;;;;;5073182;28;20643;-73
2023/08/13 05:19:30;;;;;;;6.90;3.63;;;;;;;;;;5060720;28;20523;-73
2023/08/13 05:22:34;;;;;;;7.77;3.83;;;;;;;;;;5072206;28;20219;-73
2023/08/13 05:25:40;;;;;;;5.20;3.77;;;;;;;;;;5060671;28;20179;-74
2023/08/13 05:28:46;;;;;;;4.70;3.73;;;;;;;;;;5072477;28;20183;-74
2023/08/13 05:31:50;;;;;;;5.60;3.87;;;;;;;;;;5073188;28;20203;-74
2023/08/13 05:34:54;;;;;;;4.57;4.00;;;;;;;;;;5061049;28;20524;-74
2023/08/13 05:37:59;;;;;;;5.57;3.70;;;;;;;;;;5060861;28;20179;-74
2023/08/13 05:41:03;;;;;;;5.43;3.73;;;;;;;;;;5060718;28;20219;-74
2023/08/13 05:44:07;;;;;;;4.40;3.97;;;;;;;;;;5060759;28;20171;-74
2023/08/13 05:47:11;;;;;;;4.40;4.00;;;;;;;;;;5062868;28;20179;-73
2023/08/13 05:50:16;;;;;;;5.60;4.03;;;;;;;;;;5064697;28;20195;-73
2023/08/13 05:53:19;;;;;;;6.90;4.17;;;;;;;;;;5053251;28;20187;-73
2023/08/13 05:56:23;;;;;;;6.63;4.27;;;;;;;;;;5077043;28;20183;-73
2023/08/13 05:59:27;;;;;;;8.83;4.23;;;;;;;;;;5064496;28;20180;-73
2023/08/13 06:02:32;;;;;;;9.63;3.77;;;;;;;;;;5075673;28;20219;-73
2023/08/13 06:05:37;;;;;;;4.93;4.00;;;;;;;;;;5076620;28;20531;-73
2023/08/13 06:08:42;;;;;;;5.67;3.23;;;;;;;;;;5076813;28;20199;-73
2023/08/13 06:11:46;;;;;;;3.73;3.20;;;;;;;;;;5076436;28;20207;-73
2023/08/13 06:14:50;;;;;;;3.77;3.43;;;;;;;;;;5076386;28;20196;-73
2023/08/13 06:17:54;;;;;;;4.90;3.33;;;;;;;;;;5076640;28;20194;-73
2023/08/13 06:20:58;;;;;;;3.90;3.50;;;;;;;;;;5076216;28;20214;-73
2023/08/13 06:24:03;;;;;;;6.07;3.50;;;;;;;;;;5076198;28;20227;-73
2023/08/13 06:27:07;;;;;;;4.60;3.60;;;;;;;;;;5052281;28;20211;-73
2023/08/13 06:30:12;;;;;;;4.07;3.67;;;;;;;;;;5052701;28;20179;-73
2023/08/13 06:33:16;;;;;;;4.07;3.60;;;;;;;;;;5052360;28;20172;-73
2023/08/13 06:36:20;;;;;;;8.37;4.57;;;;;;;;;;5076017;28;20183;-72
2023/08/13 06:39:24;;;;;;;6.97;4.17;;;;;;;;;;5063889;28;20619;-72
2023/08/13 06:42:28;;;;;;;6.57;4.10;;;;;;;;;;5063491;28;20350;-73
2023/08/13 06:45:32;;;;;;;4.67;3.53;;;;;;;;;;5075916;28;20183;-73
2023/08/13 06:48:38;;;;;;;4.47;3.33;;;;;;;;;;5075832;28;20175;-73
2023/08/13 06:51:42;;;;;;;8.57;4.57;;;;;;;;;;5075802;28;20219;-73
2023/08/13 06:54:46;;;;;;;5.43;3.90;;;;;;;;;;5076264;28;20183;-73
2023/08/13 06:57:51;;;;;;;8.40;4.40;;;;;;;;;;5074655;28;20184;-73
2023/08/13 07:00:55;;;;;;;5.27;4.10;;;;;;;;;;5075863;28;20219;-73
2023/08/13 07:03:59;;;;;;;5.13;4.13;;;;;;;;;;5075734;28;20229;-73
2023/08/13 07:07:03;;;;;;;5.00;4.27;;;;;;;;;;5075680;28;20193;-73
2023/08/13 07:10:07;;;;;;;5.57;4.97;;;;;;;;;;5063093;28;20203;-73
2023/08/13 07:13:11;;;;;;;5.13;4.30;;;;;;;;;;5062874;28;20171;-73
2023/08/13 07:16:16;;;;;;;4.73;4.33;;;;;;;;;;5075474;28;20195;-74
2023/08/13 07:19:21;;;;;;;5.80;4.37;;;;;;;;;;5062969;28;20184;-74
2023/08/13 07:22:25;;;;;;;4.83;4.30;;;;;;;;;;5062826;28;20224;-74
2023/08/13 07:25:29;;;;;;;4.73;3.80;;;;;;;;;;5075374;28;20194;-74
2023/08/13 07:28:34;;;;;;;6.37;4.20;;;;;;;;;;5051294;28;20176;-73
2023/08/13 07:31:38;;;;;;;6.63;3.70;;;;;;;;;;5075005;28;20210;-73
2023/08/13 07:34:43;;;;;;;6.10;3.80;;;;;;;;;;5062515;28;20183;-73
2023/08/13 07:37:46;;;;;;;5.67;3.47;;;;;;;;;;5062664;28;20172;-73
2023/08/13 07:40:51;;;;;;;4.77;3.67;;;;;;;;;;5074620;28;20684;-73
2023/08/13 07:43:55;;;;;;;4.60;3.70;;;;;;;;;;5074807;28;20219;-73
2023/08/13 07:47:00;;;;;;;3.50;3.20;;;;;;;;;;5074994;28;20189;-73
2023/08/13 07:50:05;;;;;;;4.33;3.17;;;;;;;;;;5074496;28;20534;-73
2023/08/13 07:53:09;;;;;;;4.83;3.43;;;;;;;;;;5074473;28;20201;-73
2023/08/13 07:56:13;;;;;;;3.80;2.80;;;;;;;;;;5062131;28;20608;-73
2023/08/13 07:59:18;;;;;;;4.47;2.22;;;;;;;;;;5062279;28;20637;-73
2023/08/13 08:02:23;;;;;;;4.88;2.38;;;;;;;;;;5074404;28;20230;-73
2023/08/13 08:05:27;;;;;;;3.70;2.05;;;;;;;;;;5074205;28;20183;-73
2023/08/13 08:08:31;;;;;;;3.40;2.08;;;;;;;;;;5074523;28;20177;-73
2023/08/13 08:11:35;;;;;;;2.45;1.90;;;;;;;;;;5074083;28;20551;-73
2023/08/13 08:14:39;;;;;;;3.38;2.22;;;;;;;;;;5061812;28;20172;-71
2023/08/13 08:17:43;;;;;;;3.78;2.10;;;;;;;;;;5061793;28;20631;-71
2023/08/13 08:20:48;;;;;;;3.47;1.77;;;;;;;;;;5073919;28;20220;-71
2023/08/13 08:23:52;;;;;;;2.72;1.70;;;;;;;;;;5073792;28;20207;-71
2023/08/13 08:26:56;;;;;;;2.22;1.75;;;;;;;;;;5061475;28;20203;-71
2023/08/13 08:30:00;;;;;;;2.58;1.77;;;;;;;;;;5073786;28;20197;-71
2023/08/13 08:33:04;;;;;;;2.50;1.80;;;;;;;;;;5073648;28;20197;-71
2023/08/13 08:36:08;;;;;;;5.53;1.95;;;;;;;;;;5073680;28;20180;-71
2023/08/13 08:39:13;;;;;;;4.70;1.70;;;;;;;;;;5061301;28;20178;-72
2023/08/13 08:42:17;;;;;;;2.83;1.55;;;;;;;;;;5061107;28;20609;-72
2023/08/13 08:45:22;;;;;;;2.85;1.77;;;;;;;;;;5073878;28;20198;-71
2023/08/13 08:48:28;;;;;;;4.05;1.55;;;;;;;;;;5072519;28;20196;-71
2023/08/13 08:51:32;;;;;;;2.88;2.15;;;;;;;;;;5073404;28;20218;-71
2023/08/13 08:54:38;;;;;;;5.35;2.40;;;;;;;;;;5073407;28;20635;-71
2023/08/13 08:57:42;;;;;;;2.80;2.00;;;;;;;;;;5073513;28;20177;-71
2023/08/13 09:00:46;;;;;;;1.75;1.65;;;;;;;;;;5061003;28;20530;-71
2023/08/13 09:03:50;;;;;;;4.68;2.20;;;;;;;;;;5073714;28;20228;-71
2023/08/13 09:07:02;;;;;;;2.75;1.70;;;;;;;;;;5073688;28;20611;-71
2023/08/13 09:10:07;;;;;;;3.53;2.20;;;;;;;;;;5061091;28;20630;-71
2023/08/13 09:13:11;;;;;;;4.63;1.95;;;;;;;;;;5073100;28;20175;-71
2023/08/13 09:16:16;;;;;;;3.15;1.88;;;;;;;;;;5073147;28;20526;-71
2023/08/13 09:19:26;;;;;;;3.90;2.22;;;;;;;;;;5061072;28;20179;-72
2023/08/13 09:22:32;;;;;;;3.38;2.10;;;;;;;;;;5072325;28;20211;-71
2023/08/13 09:25:37;;;;;;;3.47;2.00;;;;;;;;;;5073263;28;20179;-71
2023/08/13 09:28:44;;;;;;;5.70;3.75;;;;;;;;;;5060957;28;20176;-71
2023/08/13 09:31:48;;;;;;;4.13;2.15;;;;;;;;;;5072966;28;20212;-71
2023/08/13 09:34:55;;;;;;;8.60;2.33;;;;;;;;;;5072868;28;20176;-71
2023/08/13 09:37:59;;;;;;;3.65;1.75;;;;;;;;;;5060775;28;20183;-72
2023/08/13 09:41:05;;;;;;;5.03;2.40;;;;;;;;;;5060608;28;20215;-72
2023/08/13 09:44:10;;;;;;;2.15;1.80;;;;;;;;;;5072700;28;20674;-71
2023/08/13 09:47:17;;;;;;;2.83;2.30;;;;;;;;;;5072971;28;20199;-71
2023/08/13 09:50:25;;;;;;;3.42;2.30;;;;;;;;;;5060612;28;20529;-71
2023/08/13 09:53:30;;;;;;;3.53;2.03;;;;;;;;;;5073231;28;20529;-71
2023/08/13 09:56:36;;;;;;;7.53;2.10;;;;;;;;;;5060365;28;20179;-71
2023/08/13 09:59:41;;;;;;;2.97;1.83;;;;;;;;;;5072753;28;20180;-72
2023/08/13 10:02:46;;;;;;;3.05;2.40;;;;;;;;;;5072480;28;20551;-71
2023/08/13 10:05:51;;;;;;;3.42;2.20;;;;;;;;;;5060220;28;20184;-72
2023/08/13 10:08:56;;;;;;;2.42;2.20;;;;;;;;;;5060758;28;20180;-72
2023/08/13 10:12:01;;;;;;;2.47;2.10;;;;;;;;;;5072975;28;20211;-71
2023/08/13 10:15:07;;;;;;;2.60;2.25;;;;;;;;;;5072802;28;20623;-72
2023/08/13 10:18:11;;;;;;;3.28;2.15;;;;;;;;;;5072853;28;20176;-72
2023/08/13 10:21:15;;;;;;;4.22;2.20;;;;;;;;;;5072332;28;20694;-72
2023/08/13 10:24:20;;;;;;;5.38;2.38;;;;;;;;;;5072546;28;20219;-72
2023/08/13 10:27:25;;;;;;;3.38;2.13;;;;;;;;;;5060024;28;20200;-72
2023/08/13 10:30:30;;;;;;;2.85;2.47;;;;;;;;;;5060173;28;20184;-72
2023/08/13 10:33:35;;;;;;;2.88;2.22;;;;;;;;;;5074692;28;20508;-71
2023/08/13 10:36:49;;;;;;;4.70;2.63;;;;;;;;;;5076091;28;20176;-71
2023/08/13 10:39:54;;;;;;;5.40;2.58;;;;;;;;;;5075819;28;20191;-71
2023/08/13 10:42:59;;;;;;;5.30;2.03;;;;;;;;;;5075951;28;20184;-71
2023/08/13 10:46:05;;;;;;;3.65;2.10;;;;;;;;;;5102559;22;20226;-73
2023/08/13 10:49:09;;;;;;;2.90;2.10;;;;;;;;;;5083856;28;20175;-73
2023/08/13 10:52:14;;;;;;;4.78;2.30;;;;;;;;;;5095889;28;20210;-73
2023/08/13 10:55:23;;;;;;;3.58;2.10;;;;;;;;;;5096183;28;20176;-74
2023/08/13 10:58:29;;;;;;;4.47;2.47;;;;;;;;;;5096243;28;20175;-74
2023/08/13 11:01:34;;;;;;;2.17;1.98;;;;;;;;;;5083574;28;20684;-73
2023/08/13 11:04:41;;;;;;;5.88;2.55;;;;;;;;;;5095611;28;20203;-74
2023/08/13 11:07:46;;;;;;;3.72;2.40;;;;;;;;;;5083542;28;20175;-74
2023/08/13 11:10:52;;;;;;;4.50;2.45;;;;;;;;;;5095519;28;20211;-74
2023/08/13 11:13:56;;;;;;;8.75;2.63;;;;;;;;;;5095906;28;20508;-74
2023/08/13 11:17:00;;;;;;;4.25;2.47;;;;;;;;;;5095793;28;20183;-74
2023/08/13 11:20:05;;;;;;;3.92;2.47;;;;;;;;;;5095689;28;20183;-74
2023/08/13 11:23:18;;;;;;;4.82;2.40;;;;;;;;;;5095681;28;20179;-74
2023/08/13 11:26:22;;;;;;;5.10;2.40;;;;;;;;;;5095597;28;20179;-74
2023/08/13 11:29:26;;;;;;;6.13;2.35;;;;;;;;;;5083044;28;20179;-74
2023/08/13 11:32:30;;;;;;;5.75;2.40;;;;;;;;;;5071302;28;20211;-74
2023/08/13 11:35:34;;;;;;;5.95;2.33;;;;;;;;;;5095049;28;20179;-73
2023/08/13 11:38:38;;;;;;;3.40;2.42;;;;;;;;;;5095368;28;20533;-73
2023/08/13 11:41:43;;;;;;;3.20;2.22;;;;;;;;;;5082719;28;20211;-73
2023/08/13 11:44:49;;;;;;;7.70;2.78;;;;;;;;;;5094064;28;20554;-74
2023/08/13 11:48:29;;;;;;;3.08;2.63;;;;;;;;;;5082427;28;20187;-73
2023/08/13 11:51:41;;;;;;;4.15;2.38;;;;;;;;;;5082252;28;20211;-74
2023/08/13 11:54:45;;;;;;;4.40;2.25;;;;;;;;;;5082551;28;20175;-73
2023/08/13 11:57:49;;;;;;;3.75;2.40;;;;;;;;;;5095071;28;20179;-73
2023/08/13 12:00:53;;;;;;;3.10;2.22;;;;;;;;;;5082411;28;20281;-73
2023/08/13 12:03:57;;;;;;;2.67;2.00;;;;;;;;;;5094413;28;20207;-73
2023/08/13 12:07:07;;;;;;;3.83;2.38;;;;;;;;;;5094906;28;20183;-73
2023/08/13 12:10:11;;;;;;;10.30;2.50;;;;;;;;;;5082287;28;20184;-74
2023/08/13 12:13:15;;;;;;;2.60;2.28;;;;;;;;;;5094381;28;20171;-73
2023/08/13 12:16:19;;;;;;;5.00;2.40;;;;;;;;;;5094296;28;20199;-73
2023/08/13 12:19:23;;;;;;;3.70;2.40;;;;;;;;;;5094183;28;20191;-73
2023/08/13 12:22:27;;;;;;;2.47;2.08;;;;;;;;;;5094115;28;20219;-73
2023/08/13 12:25:31;;;;;;;4.63;2.35;;;;;;;;;;5094183;28;20559;-73
2023/08/13 12:28:35;;;;;;;2.80;2.20;;;;;;;;;;5094578;28;20183;-73
2023/08/13 12:31:39;;;;;;;3.33;1.92;;;;;;;;;;5094306;28;20214;-73
2023/08/13 12:34:43;;;;;;;3.83;1.95;;;;;;;;;;5094305;28;20175;-73
2023/08/13 12:37:48;;;;;;;4.40;2.13;;;;;;;;;;5081798;28;20522;-73
2023/08/13 12:40:52;;;;;;;4.40;2.13;;;;;;;;;;5081851;28;20207;-73
2023/08/13 12:43:56;;;;;;;4.03;2.30;;;;;;;;;;5094082;28;20199;-73
2023/08/13 12:47:00;;;;;;;4.55;2.33;;;;;;;;;;5093843;28;20179;-73
2023/08/13 12:50:07;;;;;;;3.45;2.28;;;;;;;;;;5094069;28;20179;-73
2023/08/13 12:53:11;;;;;;;3.60;2.40;;;;;;;;;;5094021;28;20179;-73
2023/08/13 12:56:15;;;;;;;2.65;2.20;;;;;;;;;;5092732;28;20175;-73
2023/08/13 12:59:20;;;;;;;3.85;2.10;;;;;;;;;;5093944;28;20179;-73
2023/08/13 13:02:24;;;;;;;4.13;2.13;;;;;;;;;;5093700;28;20211;-73
2023/08/13 13:05:28;;;;;;;4.15;2.40;;;;;;;;;;5093453;28;20195;-73
2023/08/13 13:08:32;;;;;;;5.45;2.20;;;;;;;;;;5094001;28;20187;-73
2023/08/13 13:11:36;;;;;;;4.28;2.13;;;;;;;;;;5093560;28;20211;-74
2023/08/13 13:14:40;;;;;;;2.83;2.13;;;;;;;;;;5081456;28;20171;-73
2023/08/13 13:17:44;;;;;;;3.58;2.50;;;;;;;;;;5093580;28;20514;-73
2023/08/13 13:20:49;;;;;;;6.40;2.40;;;;;;;;;;5093160;28;20218;-73
2023/08/13 13:23:52;;;;;;;4.68;2.58;;;;;;;;;;5080791;28;20183;-73
2023/08/13 13:26:56;;;;;;;10.18;2.53;;;;;;;;;;5080998;28;20190;-73
2023/08/13 13:30:05;;;;;;;6.00;2.38;;;;;;;;;;5080947;28;20190;-73
2023/08/13 13:33:09;;;;;;;6.78;2.83;;;;;;;;;;5093237;28;20175;-73
2023/08/13 13:36:13;;;;;;;2.67;2.13;;;;;;;;;;5093346;28;20170;-73
2023/08/13 13:39:17;;;;;;;4.60;2.50;;;;;;;;;;5093315;28;20178;-73
2023/08/13 13:42:21;;;;;;;4.78;2.33;;;;;;;;;;5093372;28;20690;-73
2023/08/13 13:45:27;;;;;;;3.55;2.17;;;;;;;;;;5092765;28;20218;-74
2023/08/13 13:48:31;;;;;;;5.63;2.15;;;;;;;;;;5093033;28;20183;-73
2023/08/13 13:51:35;;;;;;;3.65;2.40;;;;;;;;;;5093240;28;20215;-73
2023/08/13 13:54:39;;;;;;;3.17;2.70;;;;;;;;;;5092919;28;20167;-73
2023/08/13 13:57:44;;;;;;;8.32;2.97;;;;;;;;;;5092832;28;20179;-74
2023/08/13 14:00:49;;;;;;;5.30;2.30;;;;;;;;;;5080570;28;20563;-73
2023/08/13 14:03:53;;;;;;;6.38;2.72;;;;;;;;;;5093233;28;20171;-73
2023/08/13 14:06:57;;;;;;;4.95;2.63;;;;;;;;;;5092851;28;20633;-73
2023/08/13 14:10:02;;;;;;;3.83;2.50;;;;;;;;;;5097304;28;20179;-73
2023/08/13 14:13:07;;;;;;;4.32;2.45;;;;;;;;;;5096734;28;20514;-73
2023/08/13 14:16:11;;;;;;;4.55;2.75;;;;;;;;;;5097090;28;20179;-73
2023/08/13 14:19:14;;;;;;;6.47;2.25;;;;;;;;;;5096588;28;20517;-73
2023/08/13 14:22:19;;;;;;;4.88;3.05;;;;;;;;;;5096460;28;20565;-73
2023/08/13 14:25:23;;;;;;;5.03;2.45;;;;;;;;;;5096889;28;20546;-73
2023/08/13 14:28:27;;;;;;;5.05;3.33;;;;;;;;;;5096635;28;20171;-73
2023/08/13 14:31:31;;;;;;;4.85;2.42;;;;;;;;;;5096571;28;20219;-72
2023/08/13 14:34:35;;;;;;;3.67;2.78;;;;;;;;;;5061194;28;20625;-73
2023/08/13 14:37:39;;;;;;;4.05;3.17;;;;;;;;;;5096256;28;20637;-73
2023/08/13 14:40:43;;;;;;;7.97;3.20;;;;;;;;;;5084129;28;20183;-73
2023/08/13 14:43:47;;;;;;;5.70;2.60;;;;;;;;;;5096341;28;20175;-73
2023/08/13 14:46:51;;;;;;;5.85;3.13;;;;;;;;;;5083553;28;20206;-73
2023/08/13 14:49:55;;;;;;;7.47;4.18;;;;;;;;;;5096382;28;20179;-73
2023/08/13 14:52:59;;;;;;;10.88;6.93;;;;;;;;;;5096408;28;20179;-73
2023/08/13 14:56:04;;;;;;;6.75;3.40;;;;;;;;;;5096131;28;20167;-73
2023/08/13 14:59:10;;;;;;;3.80;2.72;;;;;;;;;;5096009;28;20190;-73
2023/08/13 15:02:14;;;;;;;3.30;2.60;;;;;;;;;;5095766;28;20211;-73
2023/08/13 15:05:18;;;;;;;5.00;2.95;;;;;;;;;;5083171;28;20622;-73
2023/08/13 15:08:22;;;;;;;4.20;2.83;;;;;;;;;;5083339;28;20186;-73
2023/08/13 15:11:26;;;;;;;4.00;2.67;;;;;;;;;;5095495;28;20217;-73
2023/08/13 15:14:30;;;;;;;5.57;2.97;;;;;;;;;;5083087;28;20644;-73
2023/08/13 15:17:34;;;;;;;6.47;2.90;;;;;;;;;;5095868;28;20186;-73
2023/08/13 15:20:38;;;;;;;4.88;2.60;;;;;;;;;;5081878;28;20182;-73
2023/08/13 15:23:42;;;;;;;3.10;2.70;;;;;;;;;;5083218;28;20198;-73
2023/08/13 15:26:46;;;;;;;3.17;2.55;;;;;;;;;;5083042;28;20181;-73
2023/08/13 15:29:50;;;;;;;7.63;2.80;;;;;;;;;;5071523;28;20199;-73
2023/08/13 15:32:54;;;;;;;5.53;2.50;;;;;;;;;;5082746;28;20174;-73
2023/08/13 15:35:59;;;;;;;5.30;2.70;;;;;;;;;;5071290;28;20179;-73
2023/08/13 15:39:04;;;;;;;5.07;2.28;;;;;;;;;;5082913;28;20189;-73
2023/08/13 15:42:09;;;;;;;5.88;2.38;;;;;;;;;;5094934;28;20217;-73
2023/08/13 15:45:13;;;;;;;6.00;3.00;;;;;;;;;;5082800;28;20217;-73
2023/08/13 15:48:17;;;;;;;4.72;2.80;;;;;;;;;;5082742;28;20182;-72
2023/08/13 15:51:21;;;;;;;4.18;2.40;;;;;;;;;;5095040;28;20213;-73
2023/08/13 15:54:25;;;;;;;9.25;3.00;;;;;;;;;;5082403;28;20640;-73
2023/08/13 15:57:29;;;;;;;7.15;3.00;;;;;;;;;;5095060;28;20205;-73
2023/08/13 16:00:34;;;;;;;6.30;2.90;;;;;;;;;;5082239;28;20200;-72
2023/08/13 16:03:38;;;;;;;4.20;2.60;;;;;;;;;;5094589;28;20186;-72
2023/08/13 16:06:42;;;;;;;3.25;2.75;;;;;;;;;;5094469;28;20205;-73
2023/08/13 16:09:46;;;;;;;3.15;2.60;;;;;;;;;;5094609;28;20174;-72
2023/08/13 16:12:51;;;;;;;4.05;2.92;;;;;;;;;;5094316;28;20694;-72
2023/08/13 16:15:54;;;;;;;6.07;3.00;;;;;;;;;;5081796;28;20194;-73
2023/08/13 16:18:59;;;;;;;6.45;2.95;;;;;;;;;;5094412;28;20177;-72
2023/08/13 16:22:03;;;;;;;4.95;2.97;;;;;;;;;;5081994;28;20219;-73
2023/08/13 16:25:07;;;;;;;4.45;2.47;;;;;;;;;;5094617;28;20208;-72
2023/08/13 16:28:11;;;;;;;3.70;2.50;;;;;;;;;;5094538;28;20176;-73
2023/08/13 16:31:16;;;;;;;7.18;2.80;;;;;;;;;;5094024;28;20215;-72
2023/08/13 16:34:20;;;;;;;3.97;3.03;;;;;;;;;;5094231;28;20188;-73
2023/08/13 16:37:24;;;;;;;3.83;2.97;;;;;;;;;;5094708;28;20522;-73
2023/08/13 16:40:28;;;;;;;4.40;2.83;;;;;;;;;;5094329;28;20177;-73
2023/08/13 16:43:32;;;;;;;4.97;2.50;;;;;;;;;;5069917;28;20182;-73
2023/08/13 16:46:36;;;;;;;4.20;2.45;;;;;;;;;;5095608;22;20236;-71
2023/08/13 16:49:41;;;;;;;6.07;2.80;;;;;;;;;;5073657;28;20187;-71
2023/08/13 16:52:45;;;;;;;4.25;2.28;;;;;;;;;;5073288;28;20222;-71
2023/08/13 16:55:49;;;;;;;3.15;2.40;;;;;;;;;;5073449;28;20175;-72
2023/08/13 16:58:53;;;;;;;4.30;2.42;;;;;;;;;;5049913;28;20179;-73
2023/08/13 17:01:57;;;;;;;7.88;2.50;;;;;;;;;;5060833;28;20216;-71
2023/08/13 17:05:01;;;;;;;2.83;2.35;;;;;;;;;;5073135;28;20204;-71
2023/08/13 17:08:06;;;;;;;3.30;2.20;;;;;;;;;;5061223;28;20201;-71
2023/08/13 17:11:10;;;;;;;3.05;2.20;;;;;;;;;;5060718;28;20224;-72
2023/08/13 17:14:14;;;;;;;4.97;2.38;;;;;;;;;;5073527;28;20513;-73
2023/08/13 17:17:18;;;;;;;5.72;2.22;;;;;;;;;;5073683;28;20177;-73
2023/08/13 17:20:23;;;;;;;3.00;2.10;;;;;;;;;;5073408;28;20625;-73
2023/08/13 17:23:27;;;;;;;4.53;2.65;;;;;;;;;;5073439;28;20186;-73
2023/08/13 17:26:32;;;;;;;3.17;2.15;;;;;;;;;;5073105;28;20215;-73
2023/08/13 17:29:36;;;;;;;3.45;2.50;;;;;;;;;;5073161;28;20187;-73
2023/08/13 17:32:40;;;;;;;5.82;2.30;;;;;;;;;;5073243;28;20804;-73
2023/08/13 17:35:44;;;;;;;4.95;3.08;;;;;;;;;;5072937;28;20635;-73
2023/08/13 17:38:49;;;;;;;4.22;3.05;;;;;;;;;;5073222;28;20179;-73
2023/08/13 17:41:53;;;;;;;2.90;2.28;;;;;;;;;;5073191;28;20214;-73
2023/08/13 17:44:57;;;;;;;2.95;2.42;;;;;;;;;;5076905;28;20189;-73
2023/08/13 17:48:02;;;;;;;3.50;2.25;;;;;;;;;;5076882;28;20206;-73
2023/08/13 17:51:06;;;;;;;6.10;2.33;;;;;;;;;;5077232;28;20222;-73
2023/08/13 17:54:10;;;;;;;2.95;2.30;;;;;;;;;;5077101;28;20189;-73
2023/08/13 17:57:14;;;;;;;3.50;2.30;;;;;;;;;;5076771;28;20177;-73
2023/08/13 18:00:18;;;;;;;3.17;2.20;;;;;;;;;;5077148;28;20182;-73
2023/08/13 18:03:22;;;;;;;3.35;2.38;;;;;;;;;;5076633;28;20174;-73
2023/08/13 18:06:27;;;;;;;2.42;1.98;;;;;;;;;;5064522;28;20540;-73
2023/08/13 18:09:31;;;;;;;5.18;2.45;;;;;;;;;;5077138;28;20189;-73
2023/08/13 18:12:36;;;;;;;7.25;2.30;;;;;;;;;;5076689;28;20219;-73
2023/08/13 18:15:42;;;;;;;2.78;2.35;;;;;;;;;;5076708;28;20575;-73
2023/08/13 18:18:46;;;;;;;4.55;2.58;;;;;;;;;;5076367;28;20203;-73
2023/08/13 18:21:51;;;;;;;4.43;2.38;;;;;;;;;;5076762;28;20555;-73
2023/08/13 18:24:55;;;;;;;3.00;2.55;;;;;;;;;;5064283;28;20184;-73
2023/08/13 18:27:59;;;;;;;3.55;2.35;;;;;;;;;;5063868;28;20174;-73